Time;durP1;ratioP1;P1;durP2;ratioP2;P2;SDS_P1;SDS_P2;PMS_P1;PMS_P2;Temp;Humidity;BMP_temperature;BMP_pressure;BME280_temperature;BME280_humidity;BME280_pressure;Samples;Min_cycle;Max_cycle;Signal;HPM_P1;HPM_P2
2022/12/18 00:03:36;;;;;;;5.25;3.90;;;16.40;53.70;;;;;;10432422;28;20429;-55
2022/12/18 00:08:37;;;;;;;4.63;3.80;;;16.50;53.60;;;;;;10440106;28;20055;-55
2022/12/18 00:13:37;;;;;;;6.35;4.88;;;16.50;53.60;;;;;;10447014;28;20021;-56
2022/12/18 00:18:38;;;;;;;6.80;4.68;;;16.40;53.60;;;;;;10446540;28;20025;-55
2022/12/18 00:23:41;;;;;;;6.88;4.63;;;16.40;53.50;;;;;;10446580;28;20614;-56
2022/12/18 00:28:43;;;;;;;6.32;4.65;;;16.40;53.60;;;;;;10446119;28;20641;-56
2022/12/18 00:33:44;;;;;;;5.60;4.10;;;16.40;53.50;;;;;;10406719;28;20036;-56
2022/12/18 00:38:46;;;;;;;6.03;4.38;;;16.40;53.50;;;;;;10404541;28;20026;-56
2022/12/18 00:43:46;;;;;;;7.43;5.15;;;16.50;53.40;;;;;;10404847;28;20049;-55
2022/12/18 00:48:47;;;;;;;7.22;4.60;;;16.50;53.30;;;;;;10435979;28;20516;-56
2022/12/18 00:53:48;;;;;;;5.72;4.18;;;16.40;53.50;;;;;;10446903;28;20136;-56
2022/12/18 00:58:48;;;;;;;7.03;4.95;;;16.40;53.40;;;;;;10445480;28;20120;-55
2022/12/18 01:03:49;;;;;;;6.55;4.57;;;16.40;53.30;;;;;;10447015;28;20017;-56
2022/12/18 01:08:50;;;;;;;7.10;4.88;;;16.50;53.30;;;;;;10445198;28;20129;-54
2022/12/18 01:13:53;;;;;;;6.95;5.15;;;16.40;53.20;;;;;;10444513;28;20021;-54
2022/12/18 01:18:54;;;;;;;6.10;4.13;;;16.50;53.30;;;;;;10444796;28;20051;-56
2022/12/18 01:23:56;;;;;;;6.28;4.57;;;16.40;53.30;;;;;;10431678;28;20045;-55
2022/12/18 01:28:57;;;;;;;6.68;5.05;;;16.40;53.30;;;;;;10432812;28;20605;-55
2022/12/18 01:34:01;;;;;;;6.47;4.40;;;16.50;53.20;;;;;;10404306;28;20100;-55
2022/12/18 01:39:06;;;;;;;6.78;4.38;;;16.50;53.20;;;;;;10404630;28;20041;-55
2022/12/18 01:44:57;;;;;;;5.47;4.07;;;16.40;53.20;;;;;;10403120;28;20519;-56
2022/12/18 01:50:03;;;;;;;6.53;4.00;;;16.40;53.20;;;;;;10404562;28;20117;-55
2022/12/18 01:55:06;;;;;;;7.18;4.65;;;16.40;53.30;;;;;;10431162;28;20021;-56
2022/12/18 02:00:15;;;;;;;7.03;4.75;;;16.40;53.20;;;;;;10432104;28;20094;-57
2022/12/18 02:05:47;;;;;;;5.43;4.03;;;16.40;53.20;;;;;;10445413;28;20057;-57
2022/12/18 02:11:05;;;;;;;5.30;3.72;;;16.40;53.10;;;;;;10431174;28;20367;-55
2022/12/18 02:16:18;;;;;;;6.18;4.63;;;16.40;53.10;;;;;;10431980;28;20021;-57
2022/12/18 02:21:44;;;;;;;7.38;4.82;;;16.40;53.20;;;;;;10429943;28;20021;-55
2022/12/18 02:27:09;;;;;;;6.53;4.93;;;16.40;53.10;;;;;;10448242;28;20021;-56
2022/12/18 02:32:18;;;;;;;6.35;4.32;;;16.40;53.00;;;;;;10426728;28;20041;-55
2022/12/18 02:37:19;;;;;;;5.33;4.63;;;16.40;53.00;;;;;;10423900;28;20074;-55
2022/12/18 02:42:20;;;;;;;8.00;4.75;;;16.40;53.00;;;;;;10450393;28;20036;-55
2022/12/18 02:47:27;;;;;;;5.57;4.40;;;16.40;52.90;;;;;;10420319;28;20046;-55
2022/12/18 02:52:55;;;;;;;7.10;4.82;;;16.40;53.10;;;;;;10427829;28;20029;-56
2022/12/18 02:58:14;;;;;;;6.10;4.53;;;16.40;53.00;;;;;;10436420;28;20052;-56
2022/12/18 03:03:29;;;;;;;5.55;3.97;;;16.40;52.90;;;;;;10408562;28;20018;-56
2022/12/18 03:08:40;;;;;;;6.20;5.00;;;16.40;52.90;;;;;;10426673;28;20027;-56
2022/12/18 03:13:57;;;;;;;6.75;4.78;;;16.50;52.60;;;;;;10415169;28;20465;-55
2022/12/18 03:19:03;;;;;;;5.95;4.50;;;16.60;52.30;;;;;;10407729;28;20035;-55
2022/12/18 03:24:08;;;;;;;7.20;4.45;;;16.60;52.20;;;;;;10407875;28;20021;-55
2022/12/18 03:29:40;;;;;;;6.32;4.60;;;16.50;52.90;;;;;;10409124;28;20392;-54
2022/12/18 03:34:44;;;;;;;6.57;4.85;;;16.50;52.40;;;;;;10403212;28;20042;-57
2022/12/18 03:39:45;;;;;;;6.45;4.57;;;16.50;52.50;;;;;;10406590;28;20036;-54
2022/12/18 03:45:12;;;;;;;5.90;4.30;;;16.50;52.60;;;;;;10406762;28;20042;-55
2022/12/18 03:50:27;;;;;;;6.15;4.40;;;16.40;52.50;;;;;;10390258;28;20719;-56
2022/12/18 03:55:32;;;;;;;5.38;4.18;;;16.40;52.60;;;;;;10407497;28;20017;-55
2022/12/18 04:00:34;;;;;;;5.85;4.30;;;16.40;52.60;;;;;;10440374;28;20094;-55
2022/12/18 04:05:36;;;;;;;5.75;4.57;;;16.40;52.50;;;;;;10440639;28;20071;-57
2022/12/18 04:10:37;;;;;;;6.32;5.32;;;16.40;52.60;;;;;;10405995;28;20029;-55
2022/12/18 04:15:39;;;;;;;6.65;5.00;;;16.40;52.50;;;;;;10416291;28;20025;-54
2022/12/18 04:20:40;;;;;;;5.53;4.38;;;16.40;52.50;;;;;;10416933;28;20029;-56
2022/12/18 04:25:40;;;;;;;5.90;4.30;;;16.40;52.60;;;;;;10447564;28;20096;-55
2022/12/18 04:30:41;;;;;;;6.57;4.68;;;16.40;52.50;;;;;;10421545;28;20533;-55
2022/12/18 04:35:42;;;;;;;5.40;4.10;;;16.40;52.50;;;;;;10405169;28;20476;-54
2022/12/18 04:40:43;;;;;;;5.78;4.68;;;16.40;52.60;;;;;;10404908;28;20025;-55
2022/12/18 04:45:44;;;;;;;5.20;3.72;;;16.50;52.40;;;;;;10404579;28;20850;-55
2022/12/18 04:50:44;;;;;;;6.45;4.05;;;16.60;52.20;;;;;;10436782;28;20051;-55
2022/12/18 04:55:45;;;;;;;6.00;4.10;;;16.60;52.00;;;;;;10432056;28;20049;-55
2022/12/18 05:00:45;;;;;;;4.75;3.60;;;16.50;52.00;;;;;;10438568;28;20053;-55
2022/12/18 05:05:50;;;;;;;5.25;3.95;;;16.50;52.10;;;;;;10405362;28;20053;-56
2022/12/18 05:11:04;;;;;;;5.53;4.22;;;16.50;52.10;;;;;;10405100;28;20021;-55
2022/12/18 05:16:05;;;;;;;5.05;3.63;;;16.50;52.10;;;;;;10404266;28;20032;-55
2022/12/18 05:21:06;;;;;;;5.65;3.78;;;16.50;52.10;;;;;;10417267;28;20448;-55
2022/12/18 05:26:07;;;;;;;6.43;4.68;;;16.50;52.20;;;;;;10423898;28;20104;-55
2022/12/18 05:31:08;;;;;;;5.28;3.95;;;16.50;52.10;;;;;;10421214;28;20150;-55
2022/12/18 05:36:10;;;;;;;5.50;3.80;;;16.50;52.10;;;;;;10403001;28;20519;-55
2022/12/18 05:41:10;;;;;;;5.53;3.97;;;16.50;52.10;;;;;;10421222;28;20030;-55
2022/12/18 05:46:17;;;;;;;4.75;3.95;;;16.50;52.10;;;;;;10420989;28;20041;-56
2022/12/18 05:51:20;;;;;;;5.60;3.65;;;16.50;52.10;;;;;;10416084;28;20040;-54
2022/12/18 05:56:22;;;;;;;5.35;3.30;;;16.50;52.10;;;;;;10442049;28;20025;-55
2022/12/18 06:01:26;;;;;;;4.78;3.53;;;16.50;52.20;;;;;;10444277;28;20036;-57
2022/12/18 06:06:28;;;;;;;5.15;3.65;;;16.50;52.00;;;;;;10451580;28;20025;-56
2022/12/18 06:11:29;;;;;;;4.90;3.67;;;16.40;52.00;;;;;;10433761;28;20067;-56
2022/12/18 06:16:30;;;;;;;5.38;3.80;;;16.30;52.40;;;;;;10435317;28;20525;-57
2022/12/18 06:21:32;;;;;;;7.03;3.83;;;16.50;53.00;;;;;;10437699;28;20033;-57
2022/12/18 06:26:33;;;;;;;8.48;4.65;;;16.60;54.00;;;;;;10450903;28;20040;-57
2022/12/18 06:31:33;;;;;;;9.15;4.80;;;16.50;55.30;;;;;;10430579;28;20028;-55
2022/12/18 06:36:34;;;;;;;10.25;4.60;;;16.50;54.90;;;;;;10409354;28;20026;-55
2022/12/18 06:41:34;;;;;;;11.38;4.22;;;16.50;54.70;;;;;;10447694;28;20029;-53
2022/12/18 06:46:35;;;;;;;14.25;3.90;;;16.40;55.30;;;;;;10451492;28;20072;-55
2022/12/18 06:51:36;;;;;;;10.02;3.85;;;16.40;55.10;;;;;;10448136;28;20155;-54
2022/12/18 06:56:37;;;;;;;10.63;4.00;;;16.40;56.20;;;;;;10419779;28;20036;-55
2022/12/18 07:01:37;;;;;;;16.23;4.07;;;16.40;55.60;;;;;;10445969;28;20095;-55
2022/12/18 07:06:38;;;;;;;18.45;4.85;;;16.30;56.80;;;;;;10430159;28;20401;-55
2022/12/18 07:11:39;;;;;;;9.32;3.83;;;16.20;56.80;;;;;;10422300;28;20049;-54
2022/12/18 07:16:40;;;;;;;22.80;6.75;;;16.30;57.20;;;;;;10404598;28;20021;-58
2022/12/18 07:21:41;;;;;;;16.77;5.50;;;16.30;56.80;;;;;;10437693;28;20037;-55
2022/12/18 07:26:41;;;;;;;20.35;5.05;;;16.30;57.10;;;;;;10438609;28;20112;-56
2022/12/18 07:31:42;;;;;;;18.67;5.60;;;16.20;56.70;;;;;;10429253;28;20100;-56
2022/12/18 07:36:43;;;;;;;13.70;5.57;;;16.10;56.00;;;;;;10406657;28;20543;-55
2022/12/18 07:42:30;;;;;;;14.55;5.57;;;16.00;55.30;;;;;;10443649;28;20033;-55
2022/12/18 07:47:04;;;;;;;19.05;6.90;;;16.00;54.80;;;;;;10431494;28;20045;-54
2022/12/18 07:52:05;;;;;;;12.73;4.75;;;16.00;54.10;;;;;;10444747;28;20033;-55
2022/12/18 07:57:07;;;;;;;10.88;4.70;;;16.10;53.90;;;;;;10405031;28;20499;-54
2022/12/18 08:02:07;;;;;;;13.93;5.18;;;16.10;53.90;;;;;;10417827;28;20048;-55
2022/12/18 08:07:08;;;;;;;14.18;5.82;;;16.00;53.50;;;;;;10440970;28;20025;-55
2022/12/18 08:12:09;;;;;;;9.88;4.07;;;16.00;53.50;;;;;;10410672;28;20476;-55
2022/12/18 08:17:09;;;;;;;12.07;4.00;;;16.10;53.40;;;;;;10405208;28;20159;-55
2022/12/18 08:22:10;;;;;;;11.77;3.80;;;16.10;53.30;;;;;;10405164;28;20109;-55
2022/12/18 08:27:11;;;;;;;8.30;3.58;;;16.10;53.30;;;;;;10404561;28;20119;-55
2022/12/18 08:32:11;;;;;;;9.57;4.25;;;16.10;53.30;;;;;;10389329;28;20544;-55
2022/12/18 08:37:12;;;;;;;10.05;3.65;;;16.00;53.40;;;;;;10408942;28;20523;-57
2022/12/18 08:47:32;;;;;;;11.27;3.92;;;15.90;54.50;;;;;;10429240;28;20504;-56
2022/12/18 08:52:33;;;;;;;16.25;4.47;;;16.00;54.50;;;;;;10423177;28;20092;-55
2022/12/18 08:57:33;;;;;;;11.80;3.88;;;16.00;54.80;;;;;;10421584;28;20052;-53
2022/12/18 09:02:34;;;;;;;9.05;4.97;;;16.00;54.80;;;;;;10427859;28;20124;-55
2022/12/18 09:07:35;;;;;;;19.65;4.35;;;16.00;54.80;;;;;;10432015;28;20129;-55
2022/12/18 09:12:35;;;;;;;12.23;3.83;;;16.00;54.70;;;;;;10403238;28;20052;-55
2022/12/18 09:17:36;;;;;;;9.70;4.32;;;16.00;54.40;;;;;;10400616;28;20499;-55
2022/12/18 09:22:36;;;;;;;8.57;4.07;;;16.00;54.60;;;;;;10399040;28;20154;-55
2022/12/18 09:27:37;;;;;;;13.82;4.13;;;16.00;54.60;;;;;;10400859;28;20156;-55
2022/12/18 09:32:38;;;;;;;6.75;3.90;;;15.90;54.50;;;;;;10403054;28;20025;-55
2022/12/18 09:37:38;;;;;;;7.55;3.63;;;15.90;54.70;;;;;;10409162;28;20452;-55
2022/12/18 09:42:39;;;;;;;12.93;4.50;;;16.00;54.60;;;;;;10410644;28;20248;-55
2022/12/18 09:47:41;;;;;;;8.90;3.67;;;16.00;54.30;;;;;;10409212;28;20049;-55
2022/12/18 09:52:47;;;;;;;5.53;2.92;;;16.10;54.30;;;;;;10409475;28;20035;-56
2022/12/18 09:57:56;;;;;;;5.78;3.45;;;16.10;54.30;;;;;;10409116;28;20125;-56
2022/12/18 10:03:10;;;;;;;7.85;3.08;;;16.10;54.30;;;;;;10432392;28;20456;-57
2022/12/18 10:08:33;;;;;;;10.32;3.92;;;16.00;54.40;;;;;;10420606;28;20033;-57
2022/12/18 10:13:48;;;;;;;8.43;3.25;;;16.00;54.30;;;;;;10424376;28;20556;-57
2022/12/18 10:19:28;;;;;;;4.95;2.97;;;16.00;54.20;;;;;;10431313;28;20025;-57
2022/12/18 10:25:01;;;;;;;7.30;2.75;;;16.10;54.20;;;;;;10448267;28;20021;-56
2022/12/18 10:30:17;;;;;;;13.30;3.45;;;16.00;54.20;;;;;;10433062;28;20022;-56
2022/12/18 10:35:25;;;;;;;16.83;4.13;;;15.90;54.40;;;;;;10407540;28;20022;-54
2022/12/18 10:40:26;;;;;;;12.65;4.07;;;15.90;54.60;;;;;;10433292;28;20037;-56
2022/12/18 10:45:27;;;;;;;19.50;4.20;;;16.00;54.50;;;;;;10427876;28;20123;-56
2022/12/18 10:50:33;;;;;;;16.27;5.18;;;16.10;54.70;;;;;;10429593;28;20676;-57
2022/12/18 10:55:45;;;;;;;18.20;3.92;;;16.10;54.90;;;;;;10419757;28;20032;-57
2022/12/18 11:01:11;;;;;;;15.85;5.43;;;16.20;55.30;;;;;;10422973;28;20074;-56
2022/12/18 11:06:19;;;;;;;20.77;5.53;;;16.10;55.90;;;;;;10412786;28;20067;-57
2022/12/18 11:11:23;;;;;;;13.05;4.38;;;16.20;56.80;;;;;;10451095;28;20032;-58
2022/12/18 11:16:23;;;;;;;10.32;4.68;;;16.20;56.40;;;;;;10450551;28;20123;-56
2022/12/18 11:21:25;;;;;;;21.42;5.32;;;16.20;56.30;;;;;;10435454;28;20496;-57
2022/12/18 11:26:35;;;;;;;20.75;4.78;;;16.20;57.50;;;;;;10415282;28;20413;-58
2022/12/18 11:31:36;;;;;;;12.50;4.60;;;16.30;59.00;;;;;;10437121;28;20032;-56
2022/12/18 11:36:43;;;;;;;12.48;4.75;;;16.20;60.10;;;;;;10448903;28;20040;-57
2022/12/18 11:42:10;;;;;;;14.07;4.93;;;16.20;59.60;;;;;;10420580;28;20516;-58
2022/12/18 11:47:37;;;;;;;13.15;4.13;;;16.20;60.20;;;;;;10418753;28;20119;-55
2022/12/18 11:52:40;;;;;;;20.67;4.38;;;16.10;60.20;;;;;;10406985;28;20017;-56
2022/12/18 11:57:47;;;;;;;15.90;4.97;;;16.00;59.70;;;;;;10390139;28;20108;-56
2022/12/18 12:03:22;;;;;;;19.08;5.35;;;16.10;59.40;;;;;;10415519;28;20029;-56
2022/12/18 12:08:56;;;;;;;14.88;4.63;;;16.00;59.50;;;;;;10435257;28;20021;-55
2022/12/18 12:14:10;;;;;;;17.30;4.20;;;16.00;59.30;;;;;;10431802;28;20144;-55
2022/12/18 12:19:32;;;;;;;13.73;3.92;;;16.10;59.00;;;;;;10434496;28;20029;-56
2022/12/18 12:25:02;;;;;;;14.75;3.78;;;16.00;58.90;;;;;;10410949;28;20043;-56
2022/12/18 12:30:35;;;;;;;20.75;4.47;;;15.80;59.30;;;;;;10428889;28;20099;-55
2022/12/18 12:36:02;;;;;;;11.55;3.38;;;15.80;60.50;;;;;;10439100;28;20116;-56
2022/12/18 12:43:12;;;;;;;13.73;5.93;;;15.80;60.60;;;;;;10432897;28;20025;-56
2022/12/18 12:46:33;;;;;;;12.07;3.38;;;15.80;60.70;;;;;;10446444;28;20056;-56
2022/12/18 12:51:40;;;;;;;10.50;3.45;;;15.80;60.00;;;;;;10447291;28;20021;-57
2022/12/18 12:57:09;;;;;;;12.10;3.65;;;15.80;60.50;;;;;;10433656;28;20372;-56
2022/12/18 13:02:30;;;;;;;10.90;3.78;;;15.80;60.30;;;;;;10430040;28;20037;-54
2022/12/18 13:07:47;;;;;;;12.57;3.22;;;15.90;60.10;;;;;;10427801;28;20044;-56
2022/12/18 13:13:15;;;;;;;9.05;3.25;;;15.90;59.80;;;;;;10420516;28;20060;-56
2022/12/18 13:18:22;;;;;;;9.05;2.92;;;15.90;60.40;;;;;;10425472;28;20021;-56
2022/12/18 13:23:22;;;;;;;7.60;3.10;;;15.90;59.90;;;;;;10434342;28;20368;-55
2022/12/18 13:28:48;;;;;;;8.43;3.03;;;15.90;59.70;;;;;;10434800;28;20029;-55
2022/12/18 13:33:48;;;;;;;13.10;3.47;;;15.90;59.70;;;;;;10432431;28;20034;-56
2022/12/18 13:39:09;;;;;;;11.20;3.00;;;15.90;59.70;;;;;;10416508;28;20037;-56
2022/12/18 13:44:12;;;;;;;10.75;4.00;;;16.00;60.00;;;;;;10430205;28;20531;-56
2022/12/18 13:49:13;;;;;;;9.02;3.20;;;16.00;59.70;;;;;;10430159;28;20012;-55
2022/12/18 13:54:37;;;;;;;11.40;3.08;;;16.00;59.30;;;;;;10432073;28;20025;-56
2022/12/18 13:59:39;;;;;;;6.20;3.20;;;16.00;59.20;;;;;;10435315;28;20094;-55
2022/12/18 14:04:40;;;;;;;8.15;3.03;;;16.10;59.30;;;;;;10435077;28;20018;-55
2022/12/18 14:09:53;;;;;;;10.82;3.92;;;15.90;59.40;;;;;;10426248;28;20022;-56
2022/12/18 14:14:55;;;;;;;7.78;3.33;;;15.80;58.80;;;;;;10424514;28;20040;-56
2022/12/18 14:19:56;;;;;;;8.35;3.40;;;15.90;58.40;;;;;;10444082;28;20656;-57
2022/12/18 14:25:12;;;;;;;17.17;4.90;;;15.90;58.20;;;;;;10450631;28;20027;-57
2022/12/18 14:30:36;;;;;;;10.43;3.65;;;15.90;58.00;;;;;;10440776;28;20033;-56
2022/12/18 14:35:52;;;;;;;6.47;3.15;;;16.00;57.50;;;;;;10407607;28;20380;-55
2022/12/18 14:41:20;;;;;;;6.57;2.83;;;16.00;57.40;;;;;;10407085;28;20128;-56
2022/12/18 14:46:38;;;;;;;6.95;3.38;;;16.00;57.20;;;;;;10407351;28;20143;-55
2022/12/18 14:51:38;;;;;;;11.02;4.13;;;16.00;57.10;;;;;;10408520;28;20025;-55
2022/12/18 14:56:46;;;;;;;8.93;3.33;;;16.00;57.00;;;;;;10407975;28;20022;-57
2022/12/18 15:01:53;;;;;;;7.50;3.55;;;16.00;57.00;;;;;;10436127;28;20094;-56
2022/12/18 15:07:23;;;;;;;6.88;3.72;;;16.00;56.90;;;;;;10449048;28;20013;-56
2022/12/18 15:12:56;;;;;;;;;;;16.00;56.90;;;;;;10447433;28;20060;-56
2022/12/18 15:18:11;;;;;;;5.30;2.70;;;16.00;56.70;;;;;;10422687;28;20276;-56
2022/12/18 15:23:51;;;;;;;6.22;3.00;;;16.00;56.70;;;;;;10406976;28;20068;-55
2022/12/18 15:28:58;;;;;;;6.25;3.33;;;16.00;56.60;;;;;;10406955;28;20049;-56
2022/12/18 15:34:12;;;;;;;7.50;2.97;;;16.10;56.60;;;;;;10429832;28;20110;-55
2022/12/18 15:39:13;;;;;;;5.05;2.38;;;16.00;56.50;;;;;;10446215;28;20031;-57
2022/12/18 15:44:24;;;;;;;7.22;3.40;;;16.00;56.40;;;;;;10447084;28;20045;-57
2022/12/18 15:49:25;;;;;;;4.72;2.88;;;16.00;56.40;;;;;;10446134;28;20051;-57
2022/12/18 15:59:45;;;;;;;5.50;2.80;;;16.00;56.30;;;;;;10444322;28;20037;-55
2022/12/18 16:04:46;;;;;;;5.30;2.80;;;16.00;56.20;;;;;;10444640;28;20045;-54
2022/12/18 16:09:47;;;;;;;3.80;2.13;;;16.00;56.10;;;;;;10414795;28;20025;-57
2022/12/18 16:14:48;;;;;;;10.35;3.83;;;16.00;56.20;;;;;;10401183;28;20125;-57
2022/12/18 16:19:48;;;;;;;13.90;3.92;;;15.90;56.10;;;;;;10412718;28;20033;-55
2022/12/18 16:24:51;;;;;;;8.18;4.47;;;16.10;56.30;;;;;;10417460;28;20013;-54
2022/12/18 16:29:52;;;;;;;11.63;4.43;;;16.30;55.80;;;;;;10438605;28;20123;-55
2022/12/18 16:34:52;;;;;;;12.25;5.20;;;16.40;54.80;;;;;;10438788;28;20173;-54
2022/12/18 16:39:53;;;;;;;14.20;6.10;;;16.40;54.30;;;;;;10434413;28;20108;-56
2022/12/18 16:44:54;;;;;;;12.18;7.30;;;16.50;54.30;;;;;;10434993;28;20186;-55
2022/12/18 16:49:54;;;;;;;18.00;10.50;;;16.70;54.10;;;;;;10438137;28;20492;-54
2022/12/18 16:54:56;;;;;;;17.02;9.90;;;16.90;53.60;;;;;;10433661;28;20052;-55
2022/12/18 16:59:56;;;;;;;15.35;9.77;;;17.00;55.40;;;;;;10437261;28;20484;-54
2022/12/18 17:04:57;;;;;;;15.52;9.40;;;17.20;56.20;;;;;;10434757;28;20029;-55
2022/12/18 17:09:58;;;;;;;18.45;9.23;;;17.40;57.10;;;;;;10423445;28;20020;-54
2022/12/18 17:14:59;;;;;;;14.88;8.40;;;17.70;56.70;;;;;;10419699;28;20306;-55
2022/12/18 17:19:59;;;;;;;17.00;7.63;;;17.60;57.40;;;;;;10431453;28;20060;-53
2022/12/18 17:25:00;;;;;;;17.48;7.28;;;17.40;58.20;;;;;;10422349;28;20048;-57
2022/12/18 17:30:02;;;;;;;12.38;7.80;;;17.20;58.20;;;;;;10429739;28;20470;-54
2022/12/18 17:35:04;;;;;;;15.60;6.80;;;17.00;58.70;;;;;;10439316;28;20385;-55
2022/12/18 17:40:05;;;;;;;13.23;8.77;;;16.80;59.20;;;;;;10442475;28;20033;-56
2022/12/18 17:45:07;;;;;;;13.13;7.10;;;16.50;60.40;;;;;;10437935;28;20500;-56
2022/12/18 17:50:08;;;;;;;12.38;6.53;;;16.40;61.10;;;;;;10438712;28;20373;-56
2022/12/18 17:55:09;;;;;;;13.75;6.70;;;16.20;61.30;;;;;;10443084;28;20068;-54
2022/12/18 18:00:10;;;;;;;11.77;6.22;;;16.30;61.20;;;;;;10449126;28;20157;-58
2022/12/18 18:05:11;;;;;;;14.68;6.10;;;16.30;62.00;;;;;;10449563;28;20019;-56
2022/12/18 18:10:12;;;;;;;13.90;6.00;;;16.10;61.30;;;;;;10414443;28;20540;-58
2022/12/18 18:15:13;;;;;;;16.60;6.25;;;16.00;61.30;;;;;;10407180;28;20096;-58
2022/12/18 18:20:15;;;;;;;10.45;5.38;;;15.90;61.40;;;;;;10406548;28;20099;-57
2022/12/18 18:25:16;;;;;;;8.02;5.90;;;15.80;61.30;;;;;;10422984;28;20083;-57
2022/12/18 18:30:17;;;;;;;16.27;6.90;;;15.70;61.30;;;;;;10437523;28;20021;-57
2022/12/18 18:35:17;;;;;;;14.23;6.78;;;15.70;61.30;;;;;;10448174;28;20380;-57
2022/12/18 18:40:20;;;;;;;9.65;7.10;;;15.70;61.20;;;;;;10447976;28;20033;-57
2022/12/18 18:45:20;;;;;;;11.40;8.13;;;15.70;61.20;;;;;;10446415;28;20107;-57
2022/12/18 18:50:21;;;;;;;10.40;7.80;;;15.70;61.00;;;;;;10447479;28;20507;-58
2022/12/18 18:55:22;;;;;;;13.43;9.32;;;15.80;60.90;;;;;;10435390;28;20124;-57
2022/12/18 19:00:23;;;;;;;10.88;9.15;;;15.90;60.60;;;;;;10443745;28;20029;-57
2022/12/18 19:05:23;;;;;;;16.33;8.57;;;16.00;60.50;;;;;;10443911;28;20167;-57
2022/12/18 19:10:24;;;;;;;11.05;9.18;;;16.00;61.10;;;;;;10440352;28;20104;-57
2022/12/18 19:15:25;;;;;;;10.93;9.02;;;16.00;60.40;;;;;;10438527;28;20021;-58
2022/12/18 19:20:26;;;;;;;10.05;8.95;;;15.90;60.60;;;;;;10441249;28;20040;-56
2022/12/18 19:25:28;;;;;;;10.70;8.63;;;16.00;60.30;;;;;;10440367;28;20047;-56
2022/12/18 19:30:28;;;;;;;11.43;8.75;;;16.10;60.20;;;;;;10438884;28;20021;-57
2022/12/18 19:35:29;;;;;;;11.60;9.45;;;16.10;60.10;;;;;;10441448;28;20104;-57
2022/12/18 19:40:30;;;;;;;9.02;8.20;;;16.10;60.00;;;;;;10440570;28;20112;-57
2022/12/18 19:45:32;;;;;;;9.60;8.68;;;16.00;60.10;;;;;;10441631;28;20124;-56
2022/12/18 19:50:34;;;;;;;9.93;7.50;;;16.00;60.00;;;;;;10437782;28;20021;-56
2022/12/18 19:55:42;;;;;;;10.00;8.23;;;16.10;60.10;;;;;;10442821;28;20397;-57
2022/12/18 20:00:43;;;;;;;13.38;9.15;;;16.10;60.00;;;;;;10427508;28;20111;-56
2022/12/18 20:05:43;;;;;;;13.02;7.00;;;16.10;60.00;;;;;;10432983;28;20018;-56
2022/12/18 20:10:47;;;;;;;10.68;8.07;;;16.10;59.90;;;;;;10444568;28;20104;-56
2022/12/18 20:15:48;;;;;;;8.27;6.50;;;16.10;60.00;;;;;;10444652;28;20028;-57
2022/12/18 20:20:48;;;;;;;7.65;6.85;;;16.10;60.00;;;;;;10442547;28;20104;-58
2022/12/18 20:25:52;;;;;;;12.05;7.22;;;16.10;60.00;;;;;;10434586;28;20178;-57
2022/12/18 20:31:01;;;;;;;13.27;7.32;;;16.10;60.10;;;;;;10425228;28;20056;-57
2022/12/18 20:36:05;;;;;;;11.85;7.15;;;16.00;60.10;;;;;;10415663;28;20408;-57
2022/12/18 20:41:10;;;;;;;9.73;6.90;;;16.00;60.00;;;;;;10425308;28;20029;-58
2022/12/18 20:46:14;;;;;;;11.30;7.57;;;16.00;59.70;;;;;;10420414;28;20041;-57
2022/12/18 20:51:19;;;;;;;9.38;6.47;;;16.10;59.60;;;;;;10421235;28;20026;-57
2022/12/18 20:56:21;;;;;;;10.20;6.97;;;16.10;59.50;;;;;;10385427;28;20091;-57
2022/12/18 21:01:24;;;;;;;9.50;7.25;;;16.00;59.50;;;;;;10415289;28;20079;-57
2022/12/18 21:06:25;;;;;;;7.95;6.07;;;16.00;59.40;;;;;;10445553;28;20005;-57
2022/12/18 21:16:52;;;;;;;7.57;5.78;;;16.10;59.10;;;;;;10405230;28;20029;-56
2022/12/18 21:21:54;;;;;;;9.50;5.95;;;16.10;58.90;;;;;;10413763;28;20060;-56
2022/12/18 21:26:55;;;;;;;7.90;5.57;;;16.20;58.80;;;;;;10445192;28;20104;-56
2022/12/18 21:31:56;;;;;;;6.90;5.35;;;16.20;58.70;;;;;;10428423;28;20018;-57
2022/12/18 21:36:59;;;;;;;7.13;4.78;;;16.20;58.50;;;;;;10434944;28;20476;-58
2022/12/18 21:47:19;;;;;;;9.15;5.18;;;16.30;58.10;;;;;;10412555;28;20747;-57
2022/12/18 21:52:21;;;;;;;5.57;4.88;;;16.30;58.00;;;;;;10412906;28;20026;-57
2022/12/18 21:57:22;;;;;;;5.82;4.18;;;16.40;57.80;;;;;;10444494;28;20399;-57
2022/12/18 22:02:23;;;;;;;8.70;4.32;;;16.30;57.90;;;;;;10440558;28;20151;-57
2022/12/18 22:07:23;;;;;;;6.18;4.13;;;16.30;57.90;;;;;;10430010;28;20071;-56
2022/12/18 22:12:36;;;;;;;6.55;4.80;;;16.30;57.80;;;;;;10418528;28;20068;-57
2022/12/18 22:17:36;;;;;;;5.28;4.43;;;16.30;57.80;;;;;;10452012;28;20021;-56
2022/12/18 22:22:37;;;;;;;7.22;5.10;;;16.30;57.70;;;;;;10410797;28;20136;-57
2022/12/18 22:27:38;;;;;;;5.20;4.05;;;16.40;57.70;;;;;;10440686;28;20100;-56
2022/12/18 22:32:38;;;;;;;7.30;4.07;;;16.40;57.50;;;;;;10451690;28;20519;-56
2022/12/18 22:37:39;;;;;;;7.38;4.47;;;16.40;57.40;;;;;;10452374;28;20184;-57
2022/12/18 22:42:40;;;;;;;4.55;3.63;;;16.40;57.30;;;;;;10432866;28;20116;-57
2022/12/18 22:47:41;;;;;;;5.13;4.10;;;16.40;57.40;;;;;;10413350;28;20580;-58
2022/12/18 22:52:41;;;;;;;4.85;3.63;;;16.30;57.50;;;;;;10451148;28;20025;-56
2022/12/18 22:57:43;;;;;;;6.07;4.32;;;16.30;57.50;;;;;;10451791;28;20060;-57
2022/12/18 23:02:44;;;;;;;5.55;3.83;;;16.30;57.50;;;;;;10450097;28;20366;-57
2022/12/18 23:07:45;;;;;;;5.30;4.05;;;16.30;57.50;;;;;;10449802;28;20479;-56
2022/12/18 23:12:45;;;;;;;4.45;3.25;;;16.30;57.60;;;;;;10450394;28;20016;-57
2022/12/18 23:17:46;;;;;;;4.78;3.88;;;16.30;57.60;;;;;;10436448;28;20052;-57
2022/12/18 23:22:46;;;;;;;5.95;3.97;;;16.20;57.60;;;;;;10449475;28;20064;-58
2022/12/18 23:27:47;;;;;;;4.45;3.42;;;16.30;57.50;;;;;;10447424;28;20041;-57
2022/12/18 23:32:48;;;;;;;5.32;3.60;;;16.40;57.10;;;;;;10441821;28;20440;-58
2022/12/18 23:37:49;;;;;;;6.40;3.47;;;16.50;56.90;;;;;;10400575;28;20018;-57
2022/12/18 23:42:49;;;;;;;5.55;3.47;;;16.50;56.70;;;;;;10411003;28;20506;-58
2022/12/18 23:47:50;;;;;;;4.10;3.20;;;16.60;56.60;;;;;;10449734;28;20128;-57
2022/12/18 23:52:51;;;;;;;4.85;3.47;;;16.50;56.60;;;;;;10447851;28;20090;-56
2022/12/18 23:57:51;;;;;;;5.20;4.18;;;16.50;56.80;;;;;;10436044;28;20108;-56
